• Join FlightAware (Why Join?)
  • Login
  • US Flag 
04:16AM EDT


 

Airport Tracker/Info


-or-


 

Live Flight TrackerFlight Track Log ✈ DAL817 ✈ 19-Jun-2013 ✈ KCHS - KATL

Flight Track Log - Related Links

Times and Time Zones

All times are in EDT time to prevent confusion due to time zone crossing. See the DAL817 flight status page for this flight to view local times or setup timezone preferences in your user account.

Time Position Orientation Groundspeed Altitude Reporting Facility
EDT Latitude Longitude Course Direction KTS MPH feet Rate Location/Type
11:39AM 32.8694 -80.1472 253° West 233 268 4,600  Level Jacksonville Center
11:40AM 32.9333 -80.3636 270° West  Level FlightAware Approximate
11:40AM 32.8753 -80.2189 276° West 242 278 7,400  Level Jacksonville Center
11:41AM 32.9333 -80.4841 270° West  Level FlightAware Approximate
11:41AM 32.8936 -80.3047 284° West 253 291 10,700  Level Jacksonville Center
11:42AM 32.9413 -80.6042 276° West  Level FlightAware Approximate
11:42AM 32.9167 -80.4081 285° West 286 329 12,100  Level Jacksonville Center
11:43AM 32.9542 -80.7456 276° West  Level FlightAware Approximate
11:43AM 32.9419 -80.5261 284° West 335 386 14,600  Level Jacksonville Center
11:44AM 32.9658 -80.8869 253° West  Level FlightAware Approximate
11:44AM 32.9275 -80.6528 262° West 375 432 17,100  Level Jacksonville Center
11:45AM 32.9067 -80.7844 259° West 390 449 19,200 1,980 Climbing Jacksonville Center
11:46AM 32.8858 -80.9161 259° West 398 458 21,100 1,380 Climbing Jacksonville Center
11:47AM 32.8608 -81.0575 258° West 418 481 22,000 420 Climbing Jacksonville Center
11:48AM 32.8400 -81.1964 260° West 431 496 22,000  Level Jacksonville Center
11:49AM 32.8189 -81.3403 260° West 431 496 22,000  Level Jacksonville Center
11:50AM 32.7933 -81.4789 258° West 431 496 22,000  Level Jacksonville Center
11:52AM 32.7367 -81.8139 259° West 430 495 22,000  Level Atlanta Center
11:53AM 32.7158 -81.9353 259° West 408 470 22,000  Level Atlanta Center
11:54AM 32.6950 -82.0544 258° West 386 444 22,000  Level Atlanta Center
11:55AM 32.6758 -82.1708 259° West 376 433 22,000  Level Atlanta Center
11:56AM 32.6567 -82.2919 259° West 376 433 22,000  Level Atlanta Center
11:57AM 32.6333 -82.4083 257° West 371 427 22,000  Level Atlanta Center
11:58AM 32.6161 -82.5272 260° West 371 427 22,000  Level Atlanta Center
11:59AM 32.5944 -82.6458 258° West 371 427 22,000  Level Atlanta Center
12:00PM 32.5728 -82.7644 258° West 371 427 22,000  Level Atlanta Center
12:01PM 32.5947 -82.8825 282° West 363 418 22,000  Level Atlanta Center
12:02PM 32.6708 -82.9875 311° West 377 434 22,000  Level Atlanta Center
12:03PM 32.7406 -83.0956 308° West 393 452 22,000  Level Atlanta Center
12:04PM 32.8083 -83.2011 307° West 409 471 22,000  Level Atlanta Center
12:05PM 32.8819 -83.3092 309° West 409 471 22,000 -480 Level Atlanta Center
12:06PM 32.9536 -83.4150 309° West 414 476 21,100 -960 Descending Atlanta Center
12:07PM 33.0228 -83.5161 309° West 408 470 20,100 -1,200 Descending Atlanta Center
12:08PM 33.0817 -83.6150 305° West 408 470 18,800 -1,980 Descending Atlanta Center
12:09PM 33.1333 -83.7000 306° West 387 445 16,700 -2,520 Descending Atlanta TRACON
12:10PM 33.2000 -83.8000 309° West 376 433 14,400 -1,380 Descending Atlanta TRACON
12:11PM 33.2667 -83.8833 314° West 365 420 14,000 -480 Descending Atlanta TRACON
12:11PM 33.3333 -83.9833 309° West 361 415 13,500 -1,440 Descending Atlanta TRACON
12:12PM 33.3833 -84.0667 306° West 350 403 11,300 -1,260 Descending Atlanta TRACON
12:13PM 33.4500 -84.1500 314° West 341 392 11,000 -180 Descending Atlanta TRACON
12:14PM 33.5000 -84.2333 306° West 269 310 11,000  Level Atlanta TRACON
12:15PM 33.5333 -84.3000 301° West 236 272 11,000 -420 Level Atlanta TRACON
12:16PM 33.5500 -84.3667 287° West 248 285 10,200 -1,140 Descending Atlanta TRACON
12:17PM 33.5500 -84.4500 270° West 260 299 8,800 -1,320 Descending Atlanta TRACON
12:18PM 33.5500 -84.5333 270° West 242 278 7,600 -1,200 Descending Atlanta TRACON
12:19PM 33.5500 -84.6000 270° West 235 270 6,600 -1,440 Descending Atlanta TRACON
12:20PM 33.5500 -84.6833 270° West 221 254 4,900 -1,320 Descending Atlanta TRACON
12:21PM 33.5500 -84.7500 270° West 205 236 4,000 -780 Descending Atlanta TRACON
12:22PM 33.5667 -84.8000 292° West 202 232 3,400 -540 Descending Atlanta TRACON
12:23PM 33.6167 -84.7833 16° North 196 226 3,000 -240 Descending Atlanta TRACON
12:24PM 33.6333 -84.7167 73° East 198 228 3,000  Level Atlanta TRACON
12:25PM 33.6333 -84.6500 90° East 195 224 3,000  Level Atlanta TRACON